sensor_id;sensor_type;location;lat;lon;timestamp;temperature;humidity
19868;DHT22;10096;51.112;6.776;2023-03-23T00:01:14;13.70;1.00
19868;DHT22;10096;51.112;6.776;2023-03-23T00:03:45;13.70;1.00
19868;DHT22;10096;51.112;6.776;2023-03-23T00:06:13;13.90;1.00
19868;DHT22;10096;51.112;6.776;2023-03-23T00:08:44;13.90;1.00
19868;DHT22;10096;51.112;6.776;2023-03-23T00:11:12;13.70;1.00
19868;DHT22;10096;51.112;6.776;2023-03-23T00:13:41;13.70;1.00
19868;DHT22;10096;51.112;6.776;2023-03-23T00:16:13;13.70;1.00
19868;DHT22;10096;51.112;6.776;2023-03-23T00:18:45;13.90;1.00
19868;DHT22;10096;51.112;6.776;2023-03-23T00:21:12;13.70;1.00
19868;DHT22;10096;51.112;6.776;2023-03-23T00:23:40;13.80;1.00
19868;DHT22;10096;51.112;6.776;2023-03-23T00:26:11;13.70;1.00
19868;DHT22;10096;51.112;6.776;2023-03-23T00:28:39;13.70;1.00
19868;DHT22;10096;51.112;6.776;2023-03-23T00:31:07;13.90;1.00
19868;DHT22;10096;51.112;6.776;2023-03-23T00:33:37;14.00;1.00
19868;DHT22;10096;51.112;6.776;2023-03-23T00:36:07;13.70;1.00
19868;DHT22;10096;51.112;6.776;2023-03-23T00:38:36;13.80;1.00
19868;DHT22;10096;51.112;6.776;2023-03-23T00:41:04;13.70;1.00
19868;DHT22;10096;51.112;6.776;2023-03-23T00:43:33;13.80;1.00
19868;DHT22;10096;51.112;6.776;2023-03-23T00:46:02;13.60;1.00
19868;DHT22;10096;51.112;6.776;2023-03-23T00:48:35;13.80;1.00
19868;DHT22;10096;51.112;6.776;2023-03-23T00:51:06;13.80;1.00
19868;DHT22;10096;51.112;6.776;2023-03-23T00:53:36;13.50;1.00
19868;DHT22;10096;51.112;6.776;2023-03-23T00:56:03;13.80;1.00
19868;DHT22;10096;51.112;6.776;2023-03-23T00:58:31;13.60;1.00
19868;DHT22;10096;51.112;6.776;2023-03-23T01:00:59;13.50;1.00
19868;DHT22;10096;51.112;6.776;2023-03-23T01:03:26;13.50;1.00
19868;DHT22;10096;51.112;6.776;2023-03-23T01:05:55;13.40;1.00
19868;DHT22;10096;51.112;6.776;2023-03-23T01:08:23;13.70;1.00
19868;DHT22;10096;51.112;6.776;2023-03-23T01:11:02;13.60;1.00
19868;DHT22;10096;51.112;6.776;2023-03-23T01:13:29;13.40;1.00
19868;DHT22;10096;51.112;6.776;2023-03-23T01:15:56;13.60;1.00
19868;DHT22;10096;51.112;6.776;2023-03-23T01:18:23;13.40;1.00
19868;DHT22;10096;51.112;6.776;2023-03-23T01:20:50;13.70;1.00
19868;DHT22;10096;51.112;6.776;2023-03-23T01:23:18;13.60;1.00
19868;DHT22;10096;51.112;6.776;2023-03-23T01:25:45;13.60;1.00
19868;DHT22;10096;51.112;6.776;2023-03-23T01:28:12;13.40;1.00
19868;DHT22;10096;51.112;6.776;2023-03-23T01:30:39;13.60;1.00
19868;DHT22;10096;51.112;6.776;2023-03-23T01:33:09;13.40;1.00
19868;DHT22;10096;51.112;6.776;2023-03-23T01:35:37;13.30;1.00
19868;DHT22;10096;51.112;6.776;2023-03-23T01:38:04;13.40;1.00
19868;DHT22;10096;51.112;6.776;2023-03-23T01:40:33;13.40;1.00
19868;DHT22;10096;51.112;6.776;2023-03-23T01:43:00;13.30;1.00
19868;DHT22;10096;51.112;6.776;2023-03-23T01:45:30;13.30;1.00
19868;DHT22;10096;51.112;6.776;2023-03-23T01:48:01;13.30;1.00
19868;DHT22;10096;51.112;6.776;2023-03-23T01:50:33;13.20;1.00
19868;DHT22;10096;51.112;6.776;2023-03-23T01:53:05;13.20;1.00
19868;DHT22;10096;51.112;6.776;2023-03-23T01:55:36;13.30;1.00
19868;DHT22;10096;51.112;6.776;2023-03-23T01:58:05;13.00;1.00
19868;DHT22;10096;51.112;6.776;2023-03-23T02:00:33;13.20;7.70
19868;DHT22;10096;51.112;6.776;2023-03-23T02:03:00;12.90;25.50
19868;DHT22;10096;51.112;6.776;2023-03-23T02:05:30;13.10;60.30
19868;DHT22;10096;51.112;6.776;2023-03-23T02:08:01;13.10;92.90
19868;DHT22;10096;51.112;6.776;2023-03-23T02:10:30;12.80;99.90
19868;DHT22;10096;51.112;6.776;2023-03-23T02:12:59;12.90;99.90
19868;DHT22;10096;51.112;6.776;2023-03-23T02:15:32;12.70;99.90
19868;DHT22;10096;51.112;6.776;2023-03-23T02:18:06;12.80;99.90
19868;DHT22;10096;51.112;6.776;2023-03-23T02:23:59;12.70;99.90
19868;DHT22;10096;51.112;6.776;2023-03-23T02:26:44;12.40;99.90
19868;DHT22;10096;51.112;6.776;2023-03-23T02:29:52;12.60;99.90
19868;DHT22;10096;51.112;6.776;2023-03-23T02:32:39;12.60;99.90
19868;DHT22;10096;51.112;6.776;2023-03-23T02:35:17;12.60;99.90
19868;DHT22;10096;51.112;6.776;2023-03-23T02:37:48;12.60;99.90
19868;DHT22;10096;51.112;6.776;2023-03-23T02:40:19;12.50;99.90
19868;DHT22;10096;51.112;6.776;2023-03-23T02:42:50;12.50;99.90
19868;DHT22;10096;51.112;6.776;2023-03-23T02:45:20;12.60;99.90
19868;DHT22;10096;51.112;6.776;2023-03-23T02:47:52;12.50;99.90
19868;DHT22;10096;51.112;6.776;2023-03-23T02:50:23;12.50;99.90
19868;DHT22;10096;51.112;6.776;2023-03-23T02:52:53;12.40;99.90
19868;DHT22;10096;51.112;6.776;2023-03-23T02:55:21;12.70;99.90
19868;DHT22;10096;51.112;6.776;2023-03-23T02:57:50;12.50;99.90
19868;DHT22;10096;51.112;6.776;2023-03-23T03:00:19;12.50;99.90
19868;DHT22;10096;51.112;6.776;2023-03-23T03:02:47;12.50;99.90
19868;DHT22;10096;51.112;6.776;2023-03-23T03:05:27;12.40;99.90
19868;DHT22;10096;51.112;6.776;2023-03-23T03:08:07;12.40;99.90
19868;DHT22;10096;51.112;6.776;2023-03-23T03:10:43;12.40;99.90
19868;DHT22;10096;51.112;6.776;2023-03-23T03:13:17;12.40;99.90
19868;DHT22;10096;51.112;6.776;2023-03-23T03:15:53;12.40;95.80
19868;DHT22;10096;51.112;6.776;2023-03-23T03:18:25;12.70;59.60
19868;DHT22;10096;51.112;6.776;2023-03-23T03:20:59;12.50;20.50
19868;DHT22;10096;51.112;6.776;2023-03-23T03:23:27;12.70;1.00
19868;DHT22;10096;51.112;6.776;2023-03-23T03:25:56;12.80;1.00
19868;DHT22;10096;51.112;6.776;2023-03-23T03:28:24;12.60;1.00
19868;DHT22;10096;51.112;6.776;2023-03-23T03:30:55;12.60;1.00
19868;DHT22;10096;51.112;6.776;2023-03-23T03:33:24;12.70;1.00
19868;DHT22;10096;51.112;6.776;2023-03-23T03:35:52;12.70;1.00
19868;DHT22;10096;51.112;6.776;2023-03-23T03:38:22;12.70;1.00
19868;DHT22;10096;51.112;6.776;2023-03-23T03:40:48;12.70;1.00
19868;DHT22;10096;51.112;6.776;2023-03-23T03:43:15;12.80;1.00
19868;DHT22;10096;51.112;6.776;2023-03-23T03:45:42;12.50;1.00
19868;DHT22;10096;51.112;6.776;2023-03-23T03:48:10;12.80;1.00
19868;DHT22;10096;51.112;6.776;2023-03-23T03:50:37;12.70;1.00
19868;DHT22;10096;51.112;6.776;2023-03-23T03:53:04;12.90;1.00
19868;DHT22;10096;51.112;6.776;2023-03-23T03:55:33;12.70;1.00
19868;DHT22;10096;51.112;6.776;2023-03-23T03:58:01;12.70;1.00
19868;DHT22;10096;51.112;6.776;2023-03-23T04:00:29;12.90;1.00
19868;DHT22;10096;51.112;6.776;2023-03-23T04:02:56;12.60;1.00
19868;DHT22;10096;51.112;6.776;2023-03-23T04:05:28;12.60;1.00
19868;DHT22;10096;51.112;6.776;2023-03-23T04:07:55;12.70;1.00
19868;DHT22;10096;51.112;6.776;2023-03-23T04:10:27;12.60;1.00
19868;DHT22;10096;51.112;6.776;2023-03-23T04:12:56;12.60;1.00
19868;DHT22;10096;51.112;6.776;2023-03-23T04:15:24;12.60;1.00
19868;DHT22;10096;51.112;6.776;2023-03-23T04:17:52;12.60;1.00
19868;DHT22;10096;51.112;6.776;2023-03-23T04:20:19;12.70;1.00
19868;DHT22;10096;51.112;6.776;2023-03-23T04:22:47;12.70;1.00
19868;DHT22;10096;51.112;6.776;2023-03-23T04:25:16;12.80;1.00
19868;DHT22;10096;51.112;6.776;2023-03-23T04:27:46;12.80;1.00
19868;DHT22;10096;51.112;6.776;2023-03-23T04:30:20;12.70;1.00
19868;DHT22;10096;51.112;6.776;2023-03-23T04:32:49;12.70;1.00
19868;DHT22;10096;51.112;6.776;2023-03-23T04:35:19;12.60;1.00
19868;DHT22;10096;51.112;6.776;2023-03-23T04:37:46;12.70;1.00
19868;DHT22;10096;51.112;6.776;2023-03-23T04:40:16;12.70;1.00
19868;DHT22;10096;51.112;6.776;2023-03-23T04:42:44;12.60;1.00
19868;DHT22;10096;51.112;6.776;2023-03-23T04:45:15;12.60;1.00
19868;DHT22;10096;51.112;6.776;2023-03-23T04:47:49;12.80;1.00
19868;DHT22;10096;51.112;6.776;2023-03-23T04:50:20;12.60;1.00
19868;DHT22;10096;51.112;6.776;2023-03-23T04:52:49;12.60;1.00
19868;DHT22;10096;51.112;6.776;2023-03-23T04:55:18;12.60;1.00
19868;DHT22;10096;51.112;6.776;2023-03-23T04:57:46;12.70;1.00
19868;DHT22;10096;51.112;6.776;2023-03-23T05:00:14;12.70;1.00
19868;DHT22;10096;51.112;6.776;2023-03-23T05:02:42;12.60;1.00
19868;DHT22;10096;51.112;6.776;2023-03-23T05:05:12;12.60;1.00
19868;DHT22;10096;51.112;6.776;2023-03-23T05:07:40;12.70;1.00
19868;DHT22;10096;51.112;6.776;2023-03-23T05:10:09;12.70;1.00
19868;DHT22;10096;51.112;6.776;2023-03-23T05:12:36;12.80;1.00
19868;DHT22;10096;51.112;6.776;2023-03-23T05:15:04;12.80;1.00
19868;DHT22;10096;51.112;6.776;2023-03-23T05:17:32;12.80;1.00
19868;DHT22;10096;51.112;6.776;2023-03-23T05:20:00;12.90;1.00
19868;DHT22;10096;51.112;6.776;2023-03-23T05:22:31;13.10;1.00
19868;DHT22;10096;51.112;6.776;2023-03-23T05:24:58;12.90;1.00
19868;DHT22;10096;51.112;6.776;2023-03-23T05:27:27;13.00;1.00
19868;DHT22;10096;51.112;6.776;2023-03-23T05:29:55;13.10;1.00
19868;DHT22;10096;51.112;6.776;2023-03-23T05:32:25;13.00;1.00
19868;DHT22;10096;51.112;6.776;2023-03-23T05:34:55;13.10;1.00
19868;DHT22;10096;51.112;6.776;2023-03-23T05:37:22;13.20;1.00
19868;DHT22;10096;51.112;6.776;2023-03-23T05:39:51;13.20;1.00
19868;DHT22;10096;51.112;6.776;2023-03-23T05:42:21;13.20;1.00
19868;DHT22;10096;51.112;6.776;2023-03-23T05:44:48;13.20;1.00
19868;DHT22;10096;51.112;6.776;2023-03-23T05:47:18;13.20;1.00
19868;DHT22;10096;51.112;6.776;2023-03-23T05:49:46;13.20;1.00
19868;DHT22;10096;51.112;6.776;2023-03-23T05:52:13;12.90;1.00
19868;DHT22;10096;51.112;6.776;2023-03-23T05:54:40;13.10;1.00
19868;DHT22;10096;51.112;6.776;2023-03-23T05:57:24;13.10;1.00
19868;DHT22;10096;51.112;6.776;2023-03-23T05:59:52;13.20;1.00
19868;DHT22;10096;51.112;6.776;2023-03-23T06:02:19;13.10;1.00
19868;DHT22;10096;51.112;6.776;2023-03-23T06:04:51;13.10;1.00
19868;DHT22;10096;51.112;6.776;2023-03-23T06:07:22;13.20;1.00
19868;DHT22;10096;51.112;6.776;2023-03-23T06:09:49;13.10;1.00
19868;DHT22;10096;51.112;6.776;2023-03-23T06:12:18;13.10;1.00
19868;DHT22;10096;51.112;6.776;2023-03-23T06:14:46;13.10;1.00
19868;DHT22;10096;51.112;6.776;2023-03-23T06:17:14;13.30;1.00
19868;DHT22;10096;51.112;6.776;2023-03-23T06:19:41;13.10;1.00
19868;DHT22;10096;51.112;6.776;2023-03-23T06:22:09;13.30;1.00
19868;DHT22;10096;51.112;6.776;2023-03-23T06:24:37;13.50;1.00
19868;DHT22;10096;51.112;6.776;2023-03-23T06:27:04;13.30;1.00
19868;DHT22;10096;51.112;6.776;2023-03-23T06:29:35;13.30;1.00
19868;DHT22;10096;51.112;6.776;2023-03-23T06:32:04;13.30;1.00
19868;DHT22;10096;51.112;6.776;2023-03-23T06:34:31;13.20;1.00
19868;DHT22;10096;51.112;6.776;2023-03-23T06:36:59;13.40;1.00
19868;DHT22;10096;51.112;6.776;2023-03-23T06:39:28;13.60;1.00
19868;DHT22;10096;51.112;6.776;2023-03-23T06:41:56;13.60;1.00
19868;DHT22;10096;51.112;6.776;2023-03-23T06:44:24;13.50;1.00
19868;DHT22;10096;51.112;6.776;2023-03-23T06:46:53;13.50;1.00
19868;DHT22;10096;51.112;6.776;2023-03-23T06:49:20;13.50;1.00
19868;DHT22;10096;51.112;6.776;2023-03-23T06:51:47;13.50;1.00
19868;DHT22;10096;51.112;6.776;2023-03-23T06:54:14;13.60;1.00
19868;DHT22;10096;51.112;6.776;2023-03-23T06:56:42;13.50;1.00
19868;DHT22;10096;51.112;6.776;2023-03-23T06:59:09;13.60;1.00
19868;DHT22;10096;51.112;6.776;2023-03-23T07:01:36;13.60;1.00
19868;DHT22;10096;51.112;6.776;2023-03-23T07:04:05;13.60;1.00
19868;DHT22;10096;51.112;6.776;2023-03-23T07:06:33;13.80;1.00
19868;DHT22;10096;51.112;6.776;2023-03-23T07:09:01;13.60;1.00
19868;DHT22;10096;51.112;6.776;2023-03-23T07:11:29;13.60;1.00
19868;DHT22;10096;51.112;6.776;2023-03-23T07:13:56;13.80;1.00
19868;DHT22;10096;51.112;6.776;2023-03-23T07:16:23;13.90;1.00
19868;DHT22;10096;51.112;6.776;2023-03-23T07:18:51;13.60;1.00
19868;DHT22;10096;51.112;6.776;2023-03-23T07:21:20;13.80;1.00
19868;DHT22;10096;51.112;6.776;2023-03-23T07:23:47;13.60;1.00
19868;DHT22;10096;51.112;6.776;2023-03-23T07:26:13;13.70;1.00
19868;DHT22;10096;51.112;6.776;2023-03-23T07:28:40;13.80;1.00
19868;DHT22;10096;51.112;6.776;2023-03-23T07:31:07;14.10;1.00
19868;DHT22;10096;51.112;6.776;2023-03-23T07:33:36;14.00;1.00
19868;DHT22;10096;51.112;6.776;2023-03-23T07:36:03;14.30;1.00
19868;DHT22;10096;51.112;6.776;2023-03-23T07:38:33;14.20;1.00
19868;DHT22;10096;51.112;6.776;2023-03-23T07:41:01;14.30;1.00
19868;DHT22;10096;51.112;6.776;2023-03-23T07:43:29;14.40;1.00
19868;DHT22;10096;51.112;6.776;2023-03-23T07:45:58;14.50;1.00
19868;DHT22;10096;51.112;6.776;2023-03-23T07:48:26;14.40;1.00
19868;DHT22;10096;51.112;6.776;2023-03-23T07:50:53;14.10;1.00
19868;DHT22;10096;51.112;6.776;2023-03-23T07:53:20;14.60;1.00
19868;DHT22;10096;51.112;6.776;2023-03-23T07:55:54;14.50;1.00
19868;DHT22;10096;51.112;6.776;2023-03-23T07:58:21;14.60;1.00
19868;DHT22;10096;51.112;6.776;2023-03-23T08:00:48;14.50;1.00
19868;DHT22;10096;51.112;6.776;2023-03-23T08:03:16;14.90;1.00
19868;DHT22;10096;51.112;6.776;2023-03-23T08:05:43;14.50;1.00
19868;DHT22;10096;51.112;6.776;2023-03-23T08:08:10;14.60;1.00
19868;DHT22;10096;51.112;6.776;2023-03-23T08:10:37;14.50;1.00
19868;DHT22;10096;51.112;6.776;2023-03-23T08:13:06;14.40;1.00
19868;DHT22;10096;51.112;6.776;2023-03-23T08:15:34;14.80;1.00
19868;DHT22;10096;51.112;6.776;2023-03-23T08:18:03;14.60;1.00
19868;DHT22;10096;51.112;6.776;2023-03-23T08:20:31;14.70;1.00
19868;DHT22;10096;51.112;6.776;2023-03-23T08:22:59;14.70;1.00
19868;DHT22;10096;51.112;6.776;2023-03-23T08:25:28;14.70;1.00
19868;DHT22;10096;51.112;6.776;2023-03-23T08:27:57;14.70;1.00
19868;DHT22;10096;51.112;6.776;2023-03-23T08:30:26;15.00;1.00
19868;DHT22;10096;51.112;6.776;2023-03-23T08:33:00;14.90;1.00
19868;DHT22;10096;51.112;6.776;2023-03-23T08:35:27;15.00;1.00
19868;DHT22;10096;51.112;6.776;2023-03-23T08:37:54;15.00;1.00
19868;DHT22;10096;51.112;6.776;2023-03-23T08:40:24;15.00;1.00
19868;DHT22;10096;51.112;6.776;2023-03-23T08:42:52;15.00;1.00
19868;DHT22;10096;51.112;6.776;2023-03-23T08:45:23;15.20;1.00
19868;DHT22;10096;51.112;6.776;2023-03-23T08:47:52;15.10;1.00
19868;DHT22;10096;51.112;6.776;2023-03-23T08:50:23;15.30;1.00
19868;DHT22;10096;51.112;6.776;2023-03-23T08:52:51;15.40;1.00
19868;DHT22;10096;51.112;6.776;2023-03-23T08:55:19;15.50;1.00
19868;DHT22;10096;51.112;6.776;2023-03-23T08:57:46;15.50;1.00
19868;DHT22;10096;51.112;6.776;2023-03-23T09:00:16;15.50;1.00
19868;DHT22;10096;51.112;6.776;2023-03-23T09:02:44;15.60;1.00
19868;DHT22;10096;51.112;6.776;2023-03-23T09:05:15;15.70;1.00
19868;DHT22;10096;51.112;6.776;2023-03-23T09:07:44;15.70;1.00
19868;DHT22;10096;51.112;6.776;2023-03-23T09:10:13;15.70;1.00
19868;DHT22;10096;51.112;6.776;2023-03-23T09:12:41;15.70;1.00
19868;DHT22;10096;51.112;6.776;2023-03-23T09:15:11;15.80;1.00
19868;DHT22;10096;51.112;6.776;2023-03-23T09:17:41;15.80;1.00
19868;DHT22;10096;51.112;6.776;2023-03-23T09:20:09;15.60;1.00
19868;DHT22;10096;51.112;6.776;2023-03-23T09:22:40;15.80;1.00
19868;DHT22;10096;51.112;6.776;2023-03-23T09:25:09;16.00;1.00
19868;DHT22;10096;51.112;6.776;2023-03-23T09:27:39;15.80;1.00
19868;DHT22;10096;51.112;6.776;2023-03-23T09:30:08;15.80;1.00
19868;DHT22;10096;51.112;6.776;2023-03-23T09:32:36;15.90;1.00
19868;DHT22;10096;51.112;6.776;2023-03-23T09:35:06;15.90;1.00
19868;DHT22;10096;51.112;6.776;2023-03-23T09:37:36;15.60;1.00
19868;DHT22;10096;51.112;6.776;2023-03-23T09:40:09;15.60;1.00
19868;DHT22;10096;51.112;6.776;2023-03-23T09:42:52;15.60;1.00
19868;DHT22;10096;51.112;6.776;2023-03-23T09:45:25;15.60;1.00
19868;DHT22;10096;51.112;6.776;2023-03-23T09:48:17;15.40;1.00
19868;DHT22;10096;51.112;6.776;2023-03-23T09:50:50;15.30;1.00
19868;DHT22;10096;51.112;6.776;2023-03-23T09:53:22;15.20;1.00
19868;DHT22;10096;51.112;6.776;2023-03-23T09:55:51;15.20;1.00
19868;DHT22;10096;51.112;6.776;2023-03-23T09:58:26;15.40;1.00
19868;DHT22;10096;51.112;6.776;2023-03-23T10:01:00;15.10;1.00
19868;DHT22;10096;51.112;6.776;2023-03-23T10:03:45;15.10;1.00
19868;DHT22;10096;51.112;6.776;2023-03-23T10:06:18;15.70;1.00
19868;DHT22;10096;51.112;6.776;2023-03-23T10:09:03;15.80;1.00
19868;DHT22;10096;51.112;6.776;2023-03-23T10:11:40;16.00;1.00
19868;DHT22;10096;51.112;6.776;2023-03-23T10:14:20;15.70;1.00
19868;DHT22;10096;51.112;6.776;2023-03-23T10:16:55;15.70;1.00
19868;DHT22;10096;51.112;6.776;2023-03-23T10:19:29;15.70;1.00
19868;DHT22;10096;51.112;6.776;2023-03-23T10:22:02;15.70;1.00
19868;DHT22;10096;51.112;6.776;2023-03-23T10:24:34;15.50;1.00
19868;DHT22;10096;51.112;6.776;2023-03-23T10:27:22;15.50;1.00
19868;DHT22;10096;51.112;6.776;2023-03-23T10:30:11;15.00;1.00
19868;DHT22;10096;51.112;6.776;2023-03-23T10:32:44;15.00;1.00
19868;DHT22;10096;51.112;6.776;2023-03-23T10:35:17;14.50;1.00
19868;DHT22;10096;51.112;6.776;2023-03-23T10:37:50;14.20;1.00
19868;DHT22;10096;51.112;6.776;2023-03-23T10:40:22;14.10;1.00
19868;DHT22;10096;51.112;6.776;2023-03-23T10:42:52;13.50;1.00
19868;DHT22;10096;51.112;6.776;2023-03-23T10:45:22;13.20;1.00
19868;DHT22;10096;51.112;6.776;2023-03-23T10:47:54;13.20;4.70
19868;DHT22;10096;51.112;6.776;2023-03-23T10:50:25;12.80;59.90
19868;DHT22;10096;51.112;6.776;2023-03-23T10:52:55;12.60;91.10
19868;DHT22;10096;51.112;6.776;2023-03-23T10:55:24;12.60;99.90
19868;DHT22;10096;51.112;6.776;2023-03-23T10:58:01;12.60;99.90
19868;DHT22;10096;51.112;6.776;2023-03-23T11:00:33;12.80;99.90
19868;DHT22;10096;51.112;6.776;2023-03-23T11:03:03;13.00;99.90
19868;DHT22;10096;51.112;6.776;2023-03-23T11:05:37;12.90;83.50
19868;DHT22;10096;51.112;6.776;2023-03-23T11:08:11;13.00;55.50
19868;DHT22;10096;51.112;6.776;2023-03-23T11:10:41;13.10;37.20
19868;DHT22;10096;51.112;6.776;2023-03-23T11:13:13;13.30;4.10
19868;DHT22;10096;51.112;6.776;2023-03-23T11:15:42;13.00;1.00
19868;DHT22;10096;51.112;6.776;2023-03-23T11:18:11;13.00;29.60
19868;DHT22;10096;51.112;6.776;2023-03-23T11:20:41;12.90;45.10
19868;DHT22;10096;51.112;6.776;2023-03-23T11:23:15;12.90;8.00
19868;DHT22;10096;51.112;6.776;2023-03-23T11:26:08;12.90;8.40
19868;DHT22;10096;51.112;6.776;2023-03-23T11:28:43;12.70;41.40
19868;DHT22;10096;51.112;6.776;2023-03-23T11:31:10;12.70;99.90
19868;DHT22;10096;51.112;6.776;2023-03-23T11:33:47;12.70;99.90
19868;DHT22;10096;51.112;6.776;2023-03-23T11:36:17;12.70;99.90
19868;DHT22;10096;51.112;6.776;2023-03-23T11:38:55;12.80;94.30
19868;DHT22;10096;51.112;6.776;2023-03-23T11:41:24;13.00;81.80
19868;DHT22;10096;51.112;6.776;2023-03-23T11:43:54;13.10;23.00
19868;DHT22;10096;51.112;6.776;2023-03-23T11:46:32;13.40;1.00
19868;DHT22;10096;51.112;6.776;2023-03-23T11:49:02;13.40;1.00
19868;DHT22;10096;51.112;6.776;2023-03-23T11:51:36;13.60;1.00
19868;DHT22;10096;51.112;6.776;2023-03-23T11:54:09;13.70;1.00
19868;DHT22;10096;51.112;6.776;2023-03-23T11:56:41;13.30;26.60
19868;DHT22;10096;51.112;6.776;2023-03-23T11:59:12;13.30;99.90
19868;DHT22;10096;51.112;6.776;2023-03-23T12:01:53;13.60;99.90
19868;DHT22;10096;51.112;6.776;2023-03-23T12:04:31;13.50;99.90
19868;DHT22;10096;51.112;6.776;2023-03-23T12:10:01;13.80;99.90
19868;DHT22;10096;51.112;6.776;2023-03-23T12:12:37;13.90;41.60
19868;DHT22;10096;51.112;6.776;2023-03-23T12:15:25;14.00;81.50
19868;DHT22;10096;51.112;6.776;2023-03-23T12:18:01;14.10;54.00
19868;DHT22;10096;51.112;6.776;2023-03-23T12:20:46;14.40;94.60
19868;DHT22;10096;51.112;6.776;2023-03-23T12:23:22;14.80;99.90
19868;DHT22;10096;51.112;6.776;2023-03-23T12:26:15;15.30;11.50
19868;DHT22;10096;51.112;6.776;2023-03-23T12:29:10;15.40;1.00
19868;DHT22;10096;51.112;6.776;2023-03-23T12:32:17;15.30;1.00
19868;DHT22;10096;51.112;6.776;2023-03-23T12:34:52;15.90;1.00
19868;DHT22;10096;51.112;6.776;2023-03-23T12:37:35;15.80;1.00
19868;DHT22;10096;51.112;6.776;2023-03-23T12:40:30;16.00;1.00
19868;DHT22;10096;51.112;6.776;2023-03-23T12:43:03;16.10;1.00
19868;DHT22;10096;51.112;6.776;2023-03-23T12:45:53;16.00;1.00
19868;DHT22;10096;51.112;6.776;2023-03-23T12:48:25;15.80;1.00
19868;DHT22;10096;51.112;6.776;2023-03-23T12:51:09;15.80;1.00
19868;DHT22;10096;51.112;6.776;2023-03-23T12:53:43;15.60;1.00
19868;DHT22;10096;51.112;6.776;2023-03-23T12:56:17;15.90;1.00
19868;DHT22;10096;51.112;6.776;2023-03-23T12:58:51;15.60;1.00
19868;DHT22;10096;51.112;6.776;2023-03-23T13:01:24;15.60;1.00
19868;DHT22;10096;51.112;6.776;2023-03-23T13:03:57;15.60;1.00
19868;DHT22;10096;51.112;6.776;2023-03-23T13:06:30;15.50;1.00
19868;DHT22;10096;51.112;6.776;2023-03-23T13:09:01;15.50;1.00
19868;DHT22;10096;51.112;6.776;2023-03-23T13:11:33;15.40;1.00
19868;DHT22;10096;51.112;6.776;2023-03-23T13:14:11;15.40;1.00
19868;DHT22;10096;51.112;6.776;2023-03-23T13:16:54;15.50;1.00
19868;DHT22;10096;51.112;6.776;2023-03-23T13:22:18;15.40;1.00
19868;DHT22;10096;51.112;6.776;2023-03-23T13:24:54;15.40;1.00
19868;DHT22;10096;51.112;6.776;2023-03-23T13:27:26;15.60;1.00
19868;DHT22;10096;51.112;6.776;2023-03-23T13:30:01;15.60;1.00
19868;DHT22;10096;51.112;6.776;2023-03-23T13:32:33;15.90;1.00
19868;DHT22;10096;51.112;6.776;2023-03-23T13:35:03;15.70;1.00
19868;DHT22;10096;51.112;6.776;2023-03-23T13:37:31;15.50;1.00
19868;DHT22;10096;51.112;6.776;2023-03-23T13:40:19;15.50;1.00
19868;DHT22;10096;51.112;6.776;2023-03-23T13:42:49;15.40;1.00
19868;DHT22;10096;51.112;6.776;2023-03-23T13:45:21;15.50;1.00
19868;DHT22;10096;51.112;6.776;2023-03-23T13:48:16;15.60;1.00
19868;DHT22;10096;51.112;6.776;2023-03-23T13:50:52;15.70;1.00
19868;DHT22;10096;51.112;6.776;2023-03-23T13:53:26;15.70;1.00
19868;DHT22;10096;51.112;6.776;2023-03-23T13:56:16;15.60;1.00
19868;DHT22;10096;51.112;6.776;2023-03-23T13:58:47;15.30;1.00
19868;DHT22;10096;51.112;6.776;2023-03-23T14:01:18;15.30;1.00
19868;DHT22;10096;51.112;6.776;2023-03-23T14:03:48;15.30;1.00
19868;DHT22;10096;51.112;6.776;2023-03-23T14:06:20;15.40;1.00
19868;DHT22;10096;51.112;6.776;2023-03-23T14:08:52;15.80;1.00
19868;DHT22;10096;51.112;6.776;2023-03-23T14:11:23;15.60;1.00
19868;DHT22;10096;51.112;6.776;2023-03-23T14:14:00;15.80;1.00
19868;DHT22;10096;51.112;6.776;2023-03-23T14:16:41;15.60;1.00
19868;DHT22;10096;51.112;6.776;2023-03-23T14:19:19;15.70;1.00
19868;DHT22;10096;51.112;6.776;2023-03-23T14:21:54;15.90;1.00
19868;DHT22;10096;51.112;6.776;2023-03-23T14:24:23;15.60;1.00
19868;DHT22;10096;51.112;6.776;2023-03-23T14:27:01;15.90;1.00
19868;DHT22;10096;51.112;6.776;2023-03-23T14:29:28;16.20;1.00
19868;DHT22;10096;51.112;6.776;2023-03-23T14:31:58;16.00;1.00
19868;DHT22;10096;51.112;6.776;2023-03-23T14:34:29;16.30;1.00
19868;DHT22;10096;51.112;6.776;2023-03-23T14:36:58;16.20;1.00
19868;DHT22;10096;51.112;6.776;2023-03-23T14:39:27;16.20;1.00
19868;DHT22;10096;51.112;6.776;2023-03-23T14:41:56;15.90;1.00
19868;DHT22;10096;51.112;6.776;2023-03-23T14:44:30;15.70;1.00
19868;DHT22;10096;51.112;6.776;2023-03-23T14:47:01;15.60;1.00
19868;DHT22;10096;51.112;6.776;2023-03-23T14:49:32;15.50;1.00
19868;DHT22;10096;51.112;6.776;2023-03-23T14:52:10;15.40;1.00
19868;DHT22;10096;51.112;6.776;2023-03-23T14:54:38;15.30;1.00
19868;DHT22;10096;51.112;6.776;2023-03-23T14:57:12;15.20;1.00
19868;DHT22;10096;51.112;6.776;2023-03-23T14:59:41;15.20;1.00
19868;DHT22;10096;51.112;6.776;2023-03-23T15:02:12;15.30;1.00
19868;DHT22;10096;51.112;6.776;2023-03-23T15:04:40;15.00;1.00
19868;DHT22;10096;51.112;6.776;2023-03-23T15:07:12;14.90;1.00
19868;DHT22;10096;51.112;6.776;2023-03-23T15:09:42;15.20;1.00
19868;DHT22;10096;51.112;6.776;2023-03-23T15:12:21;15.10;1.00
19868;DHT22;10096;51.112;6.776;2023-03-23T15:14:52;15.30;1.00
19868;DHT22;10096;51.112;6.776;2023-03-23T15:17:20;15.40;1.00
19868;DHT22;10096;51.112;6.776;2023-03-23T15:19:50;15.40;1.00
19868;DHT22;10096;51.112;6.776;2023-03-23T15:22:23;15.30;1.00
19868;DHT22;10096;51.112;6.776;2023-03-23T15:25:08;15.40;1.00
19868;DHT22;10096;51.112;6.776;2023-03-23T15:27:49;15.30;1.00
19868;DHT22;10096;51.112;6.776;2023-03-23T15:30:31;15.10;1.00
19868;DHT22;10096;51.112;6.776;2023-03-23T15:33:04;15.10;1.00
19868;DHT22;10096;51.112;6.776;2023-03-23T15:35:36;15.00;1.00
19868;DHT22;10096;51.112;6.776;2023-03-23T15:38:15;15.10;1.00
19868;DHT22;10096;51.112;6.776;2023-03-23T15:40:44;15.30;1.00
19868;DHT22;10096;51.112;6.776;2023-03-23T15:43:16;15.10;1.00
19868;DHT22;10096;51.112;6.776;2023-03-23T15:45:57;15.30;1.00
19868;DHT22;10096;51.112;6.776;2023-03-23T15:48:28;15.20;1.00
19868;DHT22;10096;51.112;6.776;2023-03-23T15:50:56;15.40;1.00
19868;DHT22;10096;51.112;6.776;2023-03-23T15:53:29;15.30;1.00
19868;DHT22;10096;51.112;6.776;2023-03-23T15:55:59;15.20;1.00
19868;DHT22;10096;51.112;6.776;2023-03-23T15:58:28;15.40;1.00
19868;DHT22;10096;51.112;6.776;2023-03-23T16:00:55;15.30;1.00
19868;DHT22;10096;51.112;6.776;2023-03-23T16:03:25;15.50;1.00
19868;DHT22;10096;51.112;6.776;2023-03-23T16:05:53;15.80;1.00
19868;DHT22;10096;51.112;6.776;2023-03-23T16:08:20;15.50;1.00
19868;DHT22;10096;51.112;6.776;2023-03-23T16:10:50;15.70;1.00
19868;DHT22;10096;51.112;6.776;2023-03-23T16:13:17;15.50;1.00
19868;DHT22;10096;51.112;6.776;2023-03-23T16:15:46;15.80;1.00
19868;DHT22;10096;51.112;6.776;2023-03-23T16:18:17;15.80;1.00
19868;DHT22;10096;51.112;6.776;2023-03-23T16:20:45;15.60;1.00